Cele, Texas
Current Conditions -  °F | °C
As of 10:35 AM on Friday 19 Dec 2014 (Local Time) from KEDC Reporting Station
Overcast Overcast  
Wind Chill: 11°   Ceiling: 900
Heat Index: 11°   Visibility: 10mi
Dew Point:   Wind: 14mph
Humidity: 88%   Direction: 360°N
Pressure: 30.14"   Gusts: 18mph
Location:  30.352°N, 97.5205°W
Report Text: KEDC 191635Z AUTO 36012G16KT 10SM OVC009 11/09 A3014 RMK AO2
Loading
Personal Weather Stations






























Interactive Weather Map New forecast layout! Learn more

10-Day Weather Forecast

Advertisements
Track Severe Weather on mobile